Time;durP1;ratioP1;P1;durP2;ratioP2;P2;SDS_P1;SDS_P2;PMS_P1;PMS_P2;Temp;Humidity;BMP_temperature;BMP_pressure;BME280_temperature;BME280_humidity;BME280_pressure;Samples;Min_cycle;Max_cycle;Signal;HPM_P1;HPM_P2
2023/03/10 00:22:07;;;;;;;;;;;;;;;;;;;;;
2023/03/10 02:36:27;;;;;;;4.77;2.57;;;;;;;10.01;91.32;93847.22;5762949;24;20177;-86
2023/03/10 04:49:21;;;;;;;16.33;7.90;;;;;;;10.17;93.19;93810.13;5822278;24;20170;-83
2023/03/10 04:58:46;;;;;;;15.07;7.50;;;;;;;10.61;92.05;93857.81;5917715;23;20207;-84
2023/03/10 05:01:14;;;;;;;26.13;8.93;;;;;;;10.61;91.73;93850.00;6006815;23;20174;-84
2023/03/10 05:03:41;;;;;;;25.40;9.70;;;;;;;10.65;92.12;93856.28;6047500;23;20172;-85
2023/03/10 05:06:12;;;;;;;24.33;10.00;;;;;;;10.64;92.58;93871.13;6092323;23;20168;-85
2023/03/10 05:08:38;;;;;;;20.83;9.27;;;;;;;10.52;93.03;93838.44;6092594;23;20165;-85
2023/03/10 05:11:06;;;;;;;27.20;9.97;;;;;;;10.61;93.24;93850.00;6118096;23;20163;-84
2023/03/10 05:13:33;;;;;;;24.00;9.43;;;;;;;10.61;92.75;93848.22;6187376;23;20636;-83
2023/03/10 05:16:02;;;;;;;24.37;9.33;;;;;;;10.65;92.46;93856.28;6213738;23;20166;-84
2023/03/10 05:18:29;;;;;;;19.13;8.10;;;;;;;10.53;92.89;93827.84;6214016;23;20578;-85
2023/03/10 05:20:57;;;;;;;24.80;9.30;;;;;;;10.59;93.29;93845.03;6213831;23;20194;-83
2023/03/10 05:23:24;;;;;;;30.13;9.60;;;;;;;10.63;92.78;93838.34;6213511;23;20229;-81
2023/03/10 05:25:51;;;;;;;21.33;9.57;;;;;;;10.68;92.75;93845.44;6213157;23;20656;-81
2023/03/10 05:28:18;;;;;;;26.80;10.03;;;;;;;10.60;93.04;93836.22;6213654;23;20170;-78
2023/03/10 05:30:45;;;;;;;17.80;9.30;;;;;;;10.67;93.55;93838.69;6213121;23;20162;-80
2023/03/10 05:33:13;;;;;;;23.20;9.67;;;;;;;10.65;93.25;93830.31;6213168;23;20167;-79
2023/03/10 05:35:40;;;;;;;18.83;9.43;;;;;;;10.73;93.36;93838.53;6213254;23;20174;-78
2023/03/10 05:38:06;;;;;;;20.40;10.03;;;;;;;10.75;92.76;93843.47;6212831;23;20257;-79
2023/03/10 05:40:33;;;;;;;25.13;10.87;;;;;;;10.63;93.62;93829.78;6215625;23;20190;-80
2023/03/10 05:43:01;;;;;;;31.27;12.07;;;;;;;10.72;93.20;93838.75;6215160;23;20242;-80
2023/03/10 05:45:28;;;;;;;34.10;17.07;;;;;;;10.74;93.69;93834.09;6215035;23;20178;-80
2023/03/10 05:47:55;;;;;;;35.33;16.17;;;;;;;10.80;93.49;93838.31;6214504;23;20574;-79
2023/03/10 05:50:23;;;;;;;34.70;17.30;;;;;;;10.80;93.57;93827.94;6210896;23;20166;-80
2023/03/10 05:52:50;;;;;;;43.03;19.00;;;;;;;10.76;93.41;93806.06;6214261;23;20162;-80
2023/03/10 05:55:19;;;;;;;36.03;15.47;;;;;;;10.86;93.42;93821.78;6214419;23;20170;-81
2023/03/10 05:57:46;;;;;;;25.73;13.90;;;;;;;10.79;93.68;93829.75;6226708;23;20197;-78
2023/03/10 06:00:15;;;;;;;35.40;12.40;;;;;;;10.68;94.18;93828.03;6245028;23;20197;-79
2023/03/10 06:02:42;;;;;;;27.57;12.03;;;;;;;10.67;94.97;93829.06;6247037;23;20488;-78
2023/03/10 06:05:11;;;;;;;27.57;12.00;;;;;;;10.68;95.50;93820.22;6243746;23;20203;-78
2023/03/10 06:07:40;;;;;;;27.53;11.77;;;;;;;10.75;95.04;93820.88;6243766;22;20177;-79
2023/03/10 06:10:08;;;;;;;22.07;11.33;;;;;;;10.76;94.96;93830.22;6246480;23;20165;-85
2023/03/10 06:12:35;;;;;;;51.03;24.87;;;;;;;10.84;94.63;93829.03;6246159;23;20162;-84
2023/03/10 06:15:02;;;;;;;42.33;21.23;;;;;;;10.79;94.73;93826.38;6245575;23;20165;-85
2023/03/10 06:17:28;;;;;;;36.27;17.63;;;;;;;10.87;94.91;93841.56;6245256;23;20177;-84
2023/03/10 06:19:55;;;;;;;30.20;15.37;;;;;;;10.97;94.47;93846.88;6245832;23;20216;-84
2023/03/10 06:22:22;;;;;;;22.03;11.07;;;;;;;11.01;93.35;93831.59;6247043;23;20165;-84
2023/03/10 06:24:50;;;;;;;25.50;9.80;;;;;;;11.19;92.09;93839.91;6244772;23;20180;-79
2023/03/10 06:27:17;;;;;;;26.20;9.77;;;;;;;11.20;92.53;93836.25;6243777;23;20181;-78
2023/03/10 06:29:45;;;;;;;16.47;8.03;;;;;;;11.24;92.82;93834.75;6243351;23;20172;-77
2023/03/10 06:32:12;;;;;;;22.30;7.20;;;;;;;11.18;91.86;93832.31;6243599;22;20651;-79
2023/03/10 06:34:39;;;;;;;16.60;7.17;;;;;;;11.44;91.58;93849.03;6243355;23;20161;-78
2023/03/10 06:37:06;;;;;;;16.20;7.47;;;;;;;11.51;90.89;93844.44;6243391;23;20168;-78
2023/03/10 06:39:32;;;;;;;17.93;7.10;;;;;;;11.59;90.43;93838.78;6243272;23;20193;-80
2023/03/10 06:42:02;;;;;;;15.47;6.90;;;;;;;11.65;89.80;93848.22;6247281;23;20169;-79
2023/03/10 06:44:29;;;;;;;11.73;6.47;;;;;;;11.65;89.42;93830.81;6244894;23;20247;-79
2023/03/10 06:46:55;;;;;;;10.03;6.70;;;;;;;11.72;89.45;93847.03;6244472;23;20673;-79
2023/03/10 06:49:22;;;;;;;10.40;6.40;;;;;;;11.75;89.56;93843.16;6243866;23;20655;-79
2023/03/10 06:51:49;;;;;;;12.60;6.57;;;;;;;11.83;88.55;93848.72;6244168;23;20232;-79
2023/03/10 06:54:16;;;;;;;10.93;6.67;;;;;;;11.86;88.61;93850.06;6244458;23;20702;-78
2023/03/10 06:56:43;;;;;;;14.23;7.27;;;;;;;11.94;87.82;93840.00;6244834;23;20173;-78
2023/03/10 06:59:11;;;;;;;18.00;6.50;;;;;;;12.09;86.79;93847.13;6245825;23;20194;-78
2023/03/10 07:01:38;;;;;;;11.37;6.50;;;;;;;12.13;86.68;93847.44;6244057;23;20717;-78
2023/03/10 07:04:05;;;;;;;19.07;7.37;;;;;;;12.16;86.06;93845.13;6243655;23;20181;-79
2023/03/10 07:06:32;;;;;;;11.17;6.30;;;;;;;12.21;86.02;93846.97;6242677;23;20166;-78
2023/03/10 07:08:59;;;;;;;12.40;5.93;;;;;;;12.23;85.93;93844.94;6244431;23;20274;-80
2023/03/10 07:11:26;;;;;;;13.50;5.77;;;;;;;12.24;85.81;93831.63;6244541;23;20189;-79
2023/03/10 07:13:53;;;;;;;11.53;6.63;;;;;;;12.27;85.28;93819.94;6244373;23;20175;-78
2023/03/10 07:16:23;;;;;;;13.57;5.57;;;;;;;12.42;85.12;93833.88;6244264;23;20170;-79
2023/03/10 07:18:50;;;;;;;14.27;5.83;;;;;;;12.48;84.64;93829.50;6243987;23;20205;-79
2023/03/10 07:21:18;;;;;;;11.37;5.97;;;;;;;12.53;83.95;93834.72;6248578;23;20193;-79
2023/03/10 07:23:45;;;;;;;20.07;6.37;;;;;;;12.53;83.43;93819.88;6244203;23;20165;-80
2023/03/10 07:26:14;;;;;;;11.00;5.43;;;;;;;12.66;83.70;93817.88;6244107;23;20173;-79
2023/03/10 07:28:41;;;;;;;9.70;5.30;;;;;;;12.70;83.27;93821.56;6244139;23;20175;-79
2023/03/10 07:31:10;;;;;;;12.67;5.80;;;;;;;12.80;82.15;93819.00;6244260;23;20166;-78
2023/03/10 07:33:39;;;;;;;14.30;5.27;;;;;;;12.92;81.51;93830.03;6243478;23;20252;-78
2023/03/10 07:36:07;;;;;;;9.37;5.53;;;;;;;12.97;80.71;93830.06;6243881;23;20177;-79
2023/03/10 07:38:34;;;;;;;12.33;5.90;;;;;;;13.00;80.80;93821.75;6243880;23;20551;-78
2023/03/10 07:41:05;;;;;;;10.17;5.37;;;;;;;13.04;80.48;93823.56;6242827;23;20253;-79
2023/03/10 07:43:32;;;;;;;13.07;6.17;;;;;;;13.04;80.06;93805.31;6243082;23;20166;-80
2023/03/10 07:45:59;;;;;;;15.00;5.83;;;;;;;13.10;79.70;93810.63;6245921;23;20176;-78
2023/03/10 07:48:26;;;;;;;16.20;5.70;;;;;;;13.10;80.11;93790.53;6243160;23;20786;-79
2023/03/10 07:50:57;;;;;;;9.27;5.67;;;;;;;13.29;79.88;93796.88;6243704;23;20165;-79
2023/03/10 07:53:24;;;;;;;13.53;6.40;;;;;;;13.29;79.56;93789.03;6243344;23;20162;-78
2023/03/10 07:55:51;;;;;;;13.03;7.10;;;;;;;13.38;78.59;93792.72;6243397;23;20169;-78
2023/03/10 07:58:18;;;;;;;20.67;6.63;;;;;;;13.48;77.41;93779.69;6243576;23;20579;-77
2023/03/10 08:00:45;;;;;;;12.33;6.40;;;;;;;13.34;78.01;93776.00;6243401;23;20185;-78
2023/03/10 08:03:12;;;;;;;10.80;6.40;;;;;;;13.43;77.89;93782.28;6244539;23;20493;-78
2023/03/10 08:05:41;;;;;;;9.40;6.50;;;;;;;13.49;77.95;93788.31;6243624;23;20602;-78
2023/03/10 08:08:09;;;;;;;14.80;6.23;;;;;;;13.50;77.46;93767.19;6243710;23;20636;-77
2023/03/10 08:10:36;;;;;;;8.83;5.73;;;;;;;13.55;77.40;93769.81;6243312;23;20172;-78
2023/03/10 08:13:03;;;;;;;9.90;5.40;;;;;;;13.60;77.68;93769.81;6244904;23;20166;-79
2023/03/10 08:15:29;;;;;;;12.00;5.70;;;;;;;13.70;77.68;93766.44;6242917;23;20203;-78
2023/03/10 08:17:56;;;;;;;11.50;6.10;;;;;;;13.72;76.77;93764.34;6245710;23;20170;-78
2023/03/10 08:20:23;;;;;;;11.37;5.93;;;;;;;13.49;77.04;93741.31;6241252;23;20216;-79
2023/03/10 08:22:52;;;;;;;12.37;6.23;;;;;;;13.53;77.16;93737.16;6241526;23;20175;-79
2023/03/10 08:25:20;;;;;;;14.97;7.13;;;;;;;13.63;77.49;93748.41;6242013;23;20184;-78
2023/03/10 08:27:47;;;;;;;10.00;6.10;;;;;;;13.76;76.77;93735.91;6244364;23;20176;-85
2023/03/10 08:30:14;;;;;;;10.73;4.70;;;;;;;13.90;77.00;93731.72;6246349;23;20162;-85
2023/03/10 08:32:41;;;;;;;7.47;4.70;;;;;;;14.05;76.87;93734.34;6249080;23;20173;-84
2023/03/10 08:35:09;;;;;;;9.57;4.77;;;;;;;14.14;76.69;93723.09;6245932;23;20165;-86
2023/03/10 08:37:36;;;;;;;17.80;5.37;;;;;;;14.11;75.01;93694.88;6248559;23;20158;-87
2023/03/10 08:40:06;;;;;;;16.83;6.90;;;;;;;14.37;75.13;93719.19;6245588;23;20157;-85
2023/03/10 08:42:35;;;;;;;8.77;5.57;;;;;;;14.51;73.84;93724.66;6245289;23;20157;-86
2023/03/10 08:45:03;;;;;;;9.10;6.00;;;;;;;14.63;74.06;93730.41;6248651;23;20215;-87
2023/03/10 08:47:30;;;;;;;9.23;5.20;;;;;;;14.63;72.03;93691.16;6256003;23;20170;-85
2023/03/10 08:49:57;;;;;;;12.00;5.00;;;;;;;14.87;71.85;93699.19;6253252;23;20176;-86
2023/03/10 08:52:23;;;;;;;7.40;4.90;;;;;;;15.00;71.61;93706.47;6256146;23;20170;-86
2023/03/10 08:54:50;;;;;;;9.90;5.10;;;;;;;15.10;70.01;93719.50;6255277;23;20253;-88
2023/03/10 08:57:17;;;;;;;9.13;4.20;;;;;;;15.27;69.41;93707.63;6252542;23;20193;-87
2023/03/10 08:59:45;;;;;;;8.90;4.20;;;;;;;15.36;68.28;93694.75;6244634;23;20177;-88
2023/03/10 09:02:14;;;;;;;8.90;4.70;;;;;;;15.56;68.55;93697.28;6242602;23;20194;-85
2023/03/10 09:04:40;;;;;;;5.43;3.80;;;;;;;15.30;67.29;93670.44;6244162;23;20172;-87
2023/03/10 09:07:07;;;;;;;10.27;4.13;;;;;;;15.50;66.63;93685.28;6243525;23;20165;-87
2023/03/10 09:09:34;;;;;;;9.23;4.30;;;;;;;15.54;66.78;93681.06;6244103;23;20169;-87
2023/03/10 09:12:01;;;;;;;8.30;4.20;;;;;;;15.62;66.48;93677.09;6243409;23;20165;-86
2023/03/10 09:14:28;;;;;;;10.83;5.03;;;;;;;15.73;65.78;93678.56;6254129;23;20162;-86
2023/03/10 09:16:56;;;;;;;9.13;4.37;;;;;;;15.79;66.32;93677.47;6249362;23;20645;-86
2023/03/10 09:19:23;;;;;;;10.90;4.50;;;;;;;15.95;65.42;93675.53;6244538;23;20165;-88
2023/03/10 09:21:50;;;;;;;15.37;6.47;;;;;;;16.03;65.76;93673.09;6243902;23;20190;-88
2023/03/10 09:24:18;;;;;;;14.73;5.70;;;;;;;15.82;64.22;93645.50;6244476;23;20172;-86
2023/03/10 09:26:45;;;;;;;9.67;5.00;;;;;;;15.83;64.07;93633.97;6246695;23;20168;-90
2023/03/10 09:29:12;;;;;;;8.43;5.50;;;;;;;15.92;64.22;93650.66;6244021;23;20168;-86
2023/03/10 09:31:39;;;;;;;11.07;5.40;;;;;;;15.67;64.01;93635.91;6244908;23;20228;-89
2023/03/10 09:34:08;;;;;;;10.67;5.80;;;;;;;15.46;64.30;93629.25;6243766;23;20161;-86
2023/03/10 09:36:35;;;;;;;8.03;5.70;;;;;;;15.44;64.01;93620.88;6243482;23;20232;-86
2023/03/10 09:39:02;;;;;;;11.57;6.23;;;;;;;15.51;65.20;93652.81;6244112;23;20161;-85
2023/03/10 09:41:57;;;;;;;12.93;6.37;;;;;;;15.60;65.01;93659.03;6243508;23;20197;-87
2023/03/10 09:44:31;;;;;;;17.63;6.00;;;;;;;15.50;65.57;93651.22;6180429;23;20176;-86
2023/03/10 09:47:18;;;;;;;10.20;5.90;;;;;;;15.41;66.38;93626.66;6243899;23;20520;-87
2023/03/10 09:49:54;;;;;;;10.53;5.73;;;;;;;15.37;65.10;93617.00;6243573;23;20562;-87
2023/03/10 09:52:27;;;;;;;12.63;6.03;;;;;;;15.29;65.46;93615.75;6244102;22;20153;-87
2023/03/10 09:55:05;;;;;;;12.07;5.90;;;;;;;15.42;66.96;93612.50;6243580;23;20227;-86
2023/03/10 09:57:33;;;;;;;17.77;7.10;;;;;;;15.27;66.78;93642.19;6243011;23;20193;-86
2023/03/10 10:00:04;;;;;;;16.80;7.13;;;;;;;15.30;66.48;93646.09;6243354;23;20170;-84
2023/03/10 10:02:36;;;;;;;12.93;7.33;;;;;;;15.31;66.86;93645.84;6243284;23;20204;-85
2023/03/10 10:05:15;;;;;;;12.27;7.17;;;;;;;15.36;66.99;93639.78;6244091;23;20161;-89
2023/03/10 10:07:46;;;;;;;19.03;8.10;;;;;;;15.14;67.63;93589.69;6245032;22;20158;-83
2023/03/10 10:10:18;;;;;;;20.77;7.47;;;;;;;15.14;67.92;93597.53;6243861;23;20220;-85
2023/03/10 10:12:47;;;;;;;19.30;7.40;;;;;;;15.41;69.87;93618.78;6243892;23;20162;-85
2023/03/10 10:15:17;;;;;;;19.77;7.17;;;;;;;15.55;69.61;93604.06;6244461;23;20162;-86
2023/03/10 10:17:56;;;;;;;17.93;8.10;;;;;;;15.58;69.51;93595.69;6243843;23;20168;-85
2023/03/10 10:20:32;;;;;;;16.07;7.67;;;;;;;15.54;69.16;93588.63;6243083;23;20173;-85
2023/03/10 10:22:59;;;;;;;22.23;8.57;;;;;;;15.44;67.47;93565.88;6243678;23;20161;-84
2023/03/10 10:25:30;;;;;;;20.90;9.23;;;;;;;15.64;67.11;93597.16;6244271;23;20165;-83
2023/03/10 10:28:05;;;;;;;15.77;8.63;;;;;;;15.65;67.29;93605.81;6245507;23;20166;-84
2023/03/10 10:30:34;;;;;;;18.67;9.07;;;;;;;15.66;67.39;93604.78;6248074;23;20219;-85
2023/03/10 10:33:04;;;;;;;18.87;9.30;;;;;;;15.62;66.97;93595.88;6246318;23;20173;-85
2023/03/10 10:35:34;;;;;;;18.73;9.60;;;;;;;15.43;68.34;93592.34;6245185;23;20172;-84
2023/03/10 10:38:04;;;;;;;22.23;9.37;;;;;;;15.40;69.15;93598.13;6244613;23;20260;-86
2023/03/10 10:40:40;;;;;;;22.27;8.53;;;;;;;15.45;68.58;93598.88;6244892;23;20192;-84
2023/03/10 10:43:31;;;;;;;15.33;8.73;;;;;;;15.41;69.43;93597.09;6245466;23;20153;-85
2023/03/10 10:46:05;;;;;;;16.20;7.93;;;;;;;15.40;69.69;93595.50;6246724;23;20632;-87
2023/03/10 10:48:40;;;;;;;24.47;8.70;;;;;;;15.25;69.80;93575.47;6256547;23;20168;-85
2023/03/10 10:51:27;;;;;;;17.57;8.60;;;;;;;15.33;69.58;93599.22;6248809;23;20165;-79
2023/03/10 10:53:55;;;;;;;17.17;8.33;;;;;;;15.31;70.36;93588.25;6240869;23;20235;-80
2023/03/10 10:56:22;;;;;;;13.53;8.63;;;;;;;15.27;70.97;93591.66;6243614;23;20161;-80
2023/03/10 10:59:03;;;;;;;19.43;8.50;;;;;;;15.19;71.89;93581.78;6243298;23;20189;-84
2023/03/10 11:01:48;;;;;;;27.70;8.57;;;;;;;15.23;74.53;93588.06;6244801;23;20174;-86
2023/03/10 11:04:16;;;;;;;18.47;8.80;;;;;;;15.16;77.24;93541.25;6243723;23;20188;-87
2023/03/10 11:06:47;;;;;;;16.53;8.63;;;;;;;15.16;77.63;93564.78;6242825;23;20223;-80
2023/03/10 11:09:18;;;;;;;18.50;9.17;;;;;;;15.08;79.58;93559.34;6245192;23;20225;-80
2023/03/10 11:11:56;;;;;;;20.00;9.57;;;;;;;14.75;85.54;93519.00;6245759;23;20158;-85
2023/03/10 11:14:40;;;;;;;14.53;7.80;;;;;;;14.91;82.28;93530.16;6245832;23;20181;-85
2023/03/10 11:17:21;;;;;;;21.53;11.47;;;;;;;15.02;81.45;93532.44;6245361;23;20226;-85
2023/03/10 11:19:57;;;;;;;10.27;7.37;;;;;;;14.74;77.15;93483.47;6244617;23;20158;-87
2023/03/10 11:22:38;;;;;;;9.10;3.10;;;;;;;14.53;69.05;93477.56;6245008;23;20181;-84
2023/03/10 11:25:20;;;;;;;6.67;3.70;;;;;;;14.81;73.73;93477.91;6245228;23;20169;-84
2023/03/10 11:28:11;;;;;;;;;;;;;;;;;;;;;
2023/03/10 11:30:47;;;;;;;5.83;3.27;;;;;;;14.91;67.52;93499.56;6245310;23;20169;-86
2023/03/10 11:33:32;;;;;;;8.73;3.87;;;;;;;14.62;68.69;93436.72;6248851;23;20161;-82
2023/03/10 11:36:22;;;;;;;12.87;5.30;;;;;;;15.02;73.93;93493.19;6243781;23;20165;-82
2023/03/10 11:39:01;;;;;;;15.13;7.87;;;;;;;14.70;75.25;93464.91;6244238;23;20170;-81
2023/03/10 11:41:33;;;;;;;12.30;6.33;;;;;;;14.59;79.44;93471.25;6244320;23;20212;-84
2023/03/10 11:44:07;;;;;;;8.77;6.17;;;;;;;14.52;83.10;93502.16;6245792;23;20232;-87
2023/03/10 11:46:43;;;;;;;11.87;7.07;;;;;;;14.56;84.25;93484.88;6245494;23;20153;-86
2023/03/10 11:49:12;;;;;;;12.13;7.10;;;;;;;14.48;85.36;93443.63;6244262;23;20219;-85
2023/03/10 11:51:44;;;;;;;12.40;7.33;;;;;;;14.72;86.68;93454.94;6245729;23;20173;-86
2023/03/10 11:54:16;;;;;;;15.27;7.57;;;;;;;14.52;88.10;93423.72;6247738;23;20169;-84
2023/03/10 11:56:44;;;;;;;13.27;6.37;;;;;;;14.71;86.95;93445.56;6245184;23;20149;-85
2023/03/10 11:59:17;;;;;;;16.77;6.60;;;;;;;14.81;86.44;93443.91;6244447;23;20201;-85
2023/03/10 12:01:48;;;;;;;8.93;6.37;;;;;;;14.97;84.90;93434.91;6244474;23;20180;-85
2023/03/10 12:04:20;;;;;;;14.00;6.37;;;;;;;14.91;84.63;93423.69;6244912;23;20160;-84
2023/03/10 12:06:52;;;;;;;11.47;6.47;;;;;;;14.78;83.29;93398.94;6244358;23;20150;-82
2023/03/10 12:09:31;;;;;;;13.37;6.50;;;;;;;14.80;83.62;93430.06;6244116;23;20167;-82
2023/03/10 12:11:59;;;;;;;10.73;5.67;;;;;;;14.71;83.50;93406.34;6244862;23;20150;-82
2023/03/10 12:15:14;;;;;;;14.73;5.70;;;;;;;14.46;84.57;93397.91;6244090;23;20169;-81
2023/03/10 12:17:41;;;;;;;10.60;5.93;;;;;;;14.22;88.50;93358.56;6097280;23;20251;-81
2023/03/10 12:20:23;;;;;;;14.03;5.90;;;;;;;14.30;90.00;93388.56;6157889;23;20181;-82
2023/03/10 12:22:52;;;;;;;11.50;7.03;;;;;;;14.29;89.90;93358.22;6202778;22;20200;-84
2023/03/10 12:25:45;;;;;;;12.63;7.20;;;;;;;14.38;91.46;93383.56;6242587;23;20169;-81
2023/03/10 12:28:21;;;;;;;14.97;8.70;;;;;;;14.25;92.14;93373.69;6244304;23;20165;-82
2023/03/10 12:30:50;;;;;;;18.43;9.23;;;;;;;14.21;91.62;93360.38;6244236;23;20161;-84
2023/03/10 12:33:54;;;;;;;11.10;7.13;;;;;;;14.13;90.10;93371.41;6243912;23;20169;-82
2023/03/10 12:36:41;;;;;;;15.57;7.30;;;;;;;14.13;90.14;93370.63;6244326;23;20171;-83
2023/03/10 12:39:31;;;;;;;13.77;6.57;;;;;;;14.14;89.21;93353.91;6242913;22;20947;-86
2023/03/10 12:42:00;;;;;;;9.50;5.70;;;;;;;14.18;87.49;93340.03;6230303;22;20204;-83
2023/03/10 12:47:50;;;;;;;10.60;6.30;;;;;;;14.29;88.96;93368.69;6244035;23;20216;-84
2023/03/10 12:50:30;;;;;;;11.17;5.23;;;;;;;14.43;86.98;93377.53;6244316;23;20154;-86
2023/03/10 12:53:05;;;;;;;9.53;6.30;;;;;;;14.46;86.14;93362.06;6244048;23;20600;-84
2023/03/10 12:55:36;;;;;;;11.53;7.00;;;;;;;14.42;86.03;93355.06;6244771;22;20160;-84
2023/03/10 12:58:13;;;;;;;16.20;6.60;;;;;;;14.47;86.12;93352.38;6244178;22;20206;-85
2023/03/10 13:00:49;;;;;;;11.50;6.13;;;;;;;14.63;85.09;93336.28;6244663;23;20153;-86
2023/03/10 13:03:24;;;;;;;13.57;6.60;;;;;;;14.63;85.16;93338.91;6244391;23;20174;-84
2023/03/10 13:05:58;;;;;;;13.40;6.97;;;;;;;14.52;85.99;93331.44;6248296;23;20215;-83
2023/03/10 13:08:34;;;;;;;12.37;7.33;;;;;;;14.60;87.07;93342.06;6244120;23;20165;-86
2023/03/10 13:11:03;;;;;;;10.60;6.73;;;;;;;14.57;86.65;93319.09;6243916;23;20164;-88
2023/03/10 13:13:35;;;;;;;13.03;7.30;;;;;;;14.55;86.84;93326.44;6244010;23;20165;-85
2023/03/10 13:16:04;;;;;;;11.47;7.30;;;;;;;14.44;87.87;93350.31;6243901;23;20166;-85
2023/03/10 13:18:31;;;;;;;10.83;7.00;;;;;;;14.47;88.57;93318.41;6244151;23;20180;-84
2023/03/10 13:21:00;;;;;;;14.03;7.00;;;;;;;14.43;88.14;93325.25;6244241;23;20170;-84
2023/03/10 13:23:31;;;;;;;11.70;6.73;;;;;;;14.48;87.38;93323.38;6244182;23;20631;-82
2023/03/10 13:26:00;;;;;;;12.97;7.07;;;;;;;14.58;85.76;93301.56;6244089;23;20164;-87
2023/03/10 13:28:28;;;;;;;11.23;6.17;;;;;;;14.73;86.08;93298.81;6245766;23;20166;-83
2023/03/10 13:31:17;;;;;;;10.80;7.13;;;;;;;14.97;82.42;93314.53;6243588;23;20176;-84
2023/03/10 13:33:47;;;;;;;10.23;6.83;;;;;;;15.07;82.58;93317.03;6243927;23;20150;-84
2023/03/10 13:36:32;;;;;;;12.30;6.80;;;;;;;15.23;82.36;93300.13;6243872;23;20196;-83
2023/03/10 13:39:00;;;;;;;7.83;4.67;;;;;;;15.48;77.66;93297.22;6254420;23;20165;-81
2023/03/10 13:41:29;;;;;;;7.67;4.83;;;;;;;15.60;77.94;93270.63;6256068;23;20220;-80
2023/03/10 13:43:56;;;;;;;9.43;6.00;;;;;;;16.00;75.67;93267.44;6249577;23;20173;-80
2023/03/10 13:46:27;;;;;;;9.57;5.63;;;;;;;16.27;75.29;93254.44;6251957;23;20181;-83
2023/03/10 13:48:56;;;;;;;10.67;5.83;;;;;;;17.12;69.72;93261.06;6256340;23;20479;-82
2023/03/10 13:51:25;;;;;;;9.00;5.78;;;;;;;17.34;70.12;93256.72;6257937;23;20706;-82
2023/03/10 13:53:54;;;;;;;8.80;5.50;;;;;;;17.74;67.95;93249.06;6253789;23;20236;-82
2023/03/10 13:56:24;;;;;;;7.22;4.53;;;;;;;18.00;63.46;93274.50;6246001;23;20648;-83
2023/03/10 13:58:54;;;;;;;7.90;4.80;;;;;;;19.34;59.41;93267.19;6247312;23;20288;-86
2023/03/10 14:01:26;;;;;;;12.50;4.93;;;;;;;20.99;51.82;93246.53;6245601;23;20153;-80
2023/03/10 14:03:55;;;;;;;6.93;4.45;;;;;;;21.06;49.73;93275.91;6247009;23;20472;-80
2023/03/10 14:06:22;;;;;;;7.97;3.90;;;;;;;22.22;47.78;93255.81;6248050;23;20203;-80
2023/03/10 14:08:50;;;;;;;7.32;3.65;;;;;;;23.81;43.48;93263.00;6245826;23;20172;-81
2023/03/10 14:11:31;;;;;;;7.85;3.72;;;;;;;25.57;40.16;93278.41;6248035;23;20565;-84
2023/03/10 14:13:59;;;;;;;8.10;3.90;;;;;;;26.87;37.34;93279.66;6245479;23;20170;-82
2023/03/10 14:16:50;;;;;;;11.68;3.45;;;;;;;27.26;34.46;93275.03;6246463;23;20165;-83
2023/03/10 14:19:36;;;;;;;5.95;3.22;;;;;;;26.96;35.00;93269.53;6245280;23;20158;-82
2023/03/10 14:22:03;;;;;;;7.53;4.18;;;;;;;26.38;35.81;93277.56;6245611;23;20193;-80
2023/03/10 14:24:30;;;;;;;4.57;2.50;;;;;;;25.78;35.93;93256.81;6246698;23;20166;-84
2023/03/10 14:27:00;;;;;;;4.60;2.67;;;;;;;24.95;36.53;93243.78;6245412;23;20690;-86
2023/03/10 14:29:27;;;;;;;8.20;3.15;;;;;;;23.22;40.49;93234.25;6243219;23;20166;-81
2023/03/10 14:31:55;;;;;;;5.53;3.00;;;;;;;22.44;41.73;93260.78;6247737;23;20249;-80
2023/03/10 14:34:22;;;;;;;5.53;2.60;;;;;;;21.57;44.34;93242.41;6242803;23;20173;-82
2023/03/10 14:36:49;;;;;;;7.90;2.70;;;;;;;20.93;45.57;93229.31;6243180;23;20172;-81
2023/03/10 14:39:16;;;;;;;6.70;3.63;;;;;;;19.95;47.27;93229.31;6243600;23;20169;-82
2023/03/10 14:41:43;;;;;;;7.88;2.72;;;;;;;19.55;48.21;93238.44;6243260;23;20619;-88
2023/03/10 14:44:11;;;;;;;4.65;2.97;;;;;;;19.11;48.78;93240.16;6243817;23;20180;-86
2023/03/10 14:46:38;;;;;;;3.50;2.72;;;;;;;18.92;49.95;93258.06;6243858;23;20161;-83
2023/03/10 14:49:11;;;;;;;5.60;2.63;;;;;;;18.38;51.58;93224.97;6243920;23;20169;-84
2023/03/10 14:51:37;;;;;;;3.42;2.40;;;;;;;17.98;51.55;93249.56;6243946;23;20732;-84
2023/03/10 14:54:10;;;;;;;7.20;2.78;;;;;;;17.87;52.07;93256.91;6243939;23;20173;-83
2023/03/10 14:56:38;;;;;;;3.75;2.42;;;;;;;17.73;52.67;93261.44;6243547;23;20173;-81
2023/03/10 14:59:05;;;;;;;7.38;3.20;;;;;;;17.42;57.10;93258.66;6244393;23;20847;-80
2023/03/10 15:01:32;;;;;;;6.50;3.42;;;;;;;17.10;58.68;93277.13;6242723;23;20169;-81
2023/03/10 15:03:59;;;;;;;9.25;6.47;;;;;;;16.90;62.66;93262.56;6241338;23;20204;-80
2023/03/10 15:06:27;;;;;;;11.70;7.07;;;;;;;16.66;67.40;93287.38;6240919;23;20177;-84
2023/03/10 15:08:54;;;;;;;15.00;7.10;;;;;;;16.17;74.52;93290.50;6243206;23;20203;-83
2023/03/10 15:11:21;;;;;;;7.10;3.60;;;;;;;14.81;90.37;93292.97;6243599;23;20687;-83
2023/03/10 15:13:48;;;;;;;6.53;3.83;;;;;;;13.29;98.48;93259.34;6243600;23;20162;-83
2023/03/10 15:16:15;;;;;;;6.23;3.73;;;;;;;12.73;100.00;93302.28;6243455;23;20157;-83
2023/03/10 15:18:41;;;;;;;9.70;3.50;;;;;;;12.27;100.00;93319.78;6244375;23;20493;-82
2023/03/10 15:21:09;;;;;;;9.77;4.27;;;;;;;12.05;100.00;93299.22;6243857;23;20547;-81
2023/03/10 15:23:37;;;;;;;8.27;3.83;;;;;;;11.79;100.00;93280.19;6243762;23;20225;-84
2023/03/10 15:26:08;;;;;;;11.63;6.60;;;;;;;11.88;100.00;93299.47;6245852;23;20168;-87
2023/03/10 15:28:35;;;;;;;12.33;7.83;;;;;;;11.92;100.00;93297.13;6247772;23;20574;-87
2023/03/10 15:31:04;;;;;;;7.87;4.43;;;;;;;11.81;100.00;93295.53;6246223;23;20169;-89
2023/03/10 15:33:31;;;;;;;10.20;5.90;;;;;;;11.89;100.00;93292.44;6244637;23;20241;-86
2023/03/10 15:35:58;;;;;;;14.23;7.50;;;;;;;11.84;100.00;93282.00;6244325;23;20173;-86
2023/03/10 15:38:25;;;;;;;13.77;8.47;;;;;;;11.87;100.00;93273.69;6243330;23;20162;-82
2023/03/10 15:40:53;;;;;;;16.40;10.53;;;;;;;11.86;100.00;93259.88;6243079;23;20169;-81
2023/03/10 15:43:20;;;;;;;17.67;11.33;;;;;;;11.87;100.00;93253.66;6244578;23;20193;-82
2023/03/10 15:45:48;;;;;;;19.53;12.53;;;;;;;12.00;100.00;93260.19;6243721;23;20162;-81
2023/03/10 15:48:15;;;;;;;19.17;11.83;;;;;;;12.12;100.00;93257.31;6243604;23;20162;-83
2023/03/10 15:53:51;;;;;;;17.73;10.43;;;;;;;12.34;100.00;93232.53;6234223;22;20162;-82
2023/03/10 15:56:19;;;;;;;16.43;10.70;;;;;;;12.40;100.00;93241.91;6243268;23;20158;-88
2023/03/10 15:58:46;;;;;;;12.27;8.03;;;;;;;12.48;100.00;93236.16;6243421;23;20216;-88
2023/03/10 16:01:15;;;;;;;9.97;6.50;;;;;;;12.52;100.00;93234.56;6243458;23;20633;-86
2023/03/10 16:03:43;;;;;;;9.00;5.60;;;;;;;12.57;100.00;93233.78;6243919;22;20185;-88
2023/03/10 16:06:11;;;;;;;10.73;5.90;;;;;;;12.61;100.00;93223.63;6243933;23;20917;-87
2023/03/10 16:08:38;;;;;;;6.97;4.37;;;;;;;12.64;100.00;93228.31;6242897;23;20166;-88
2023/03/10 16:11:08;;;;;;;6.60;4.23;;;;;;;12.63;100.00;93213.69;6244045;23;20165;-86
2023/03/10 16:13:37;;;;;;;9.03;4.23;;;;;;;12.72;100.00;93219.94;6243490;23;20665;-88
2023/03/10 16:16:06;;;;;;;5.70;3.90;;;;;;;12.64;100.00;93204.84;6243680;23;20173;-87
2023/03/10 16:18:34;;;;;;;6.50;4.07;;;;;;;12.65;100.00;93214.22;6243853;23;20166;-87
2023/03/10 16:21:02;;;;;;;5.60;4.13;;;;;;;12.67;100.00;93207.69;6243564;23;20189;-81
2023/03/10 16:23:31;;;;;;;7.23;4.80;;;;;;;12.66;100.00;93211.34;6240351;23;20193;-83
2023/03/10 16:26:05;;;;;;;11.80;4.83;;;;;;;12.58;100.00;93198.09;6242111;23;20840;-83
2023/03/10 16:28:32;;;;;;;9.13;5.00;;;;;;;12.64;100.00;93213.41;6243258;23;20164;-83
2023/03/10 16:31:02;;;;;;;10.17;6.50;;;;;;;12.63;100.00;93203.28;6243200;23;20761;-82
2023/03/10 16:33:30;;;;;;;11.77;6.47;;;;;;;12.62;100.00;93201.69;6242909;23;20546;-83
2023/03/10 16:35:58;;;;;;;9.30;6.37;;;;;;;12.62;100.00;93199.88;6244004;23;20175;-83
2023/03/10 16:38:26;;;;;;;13.50;6.80;;;;;;;12.59;100.00;93200.41;6242907;23;20998;-83
2023/03/10 16:40:53;;;;;;;11.47;7.40;;;;;;;12.62;100.00;93191.28;6243123;23;20185;-83